Time;durP1;ratioP1;P1;durP2;ratioP2;P2;SDS_P1;SDS_P2;PMS_P1;PMS_P2;Temp;Humidity;BMP_temperature;BMP_pressure;BME280_temperature;BME280_humidity;BME280_pressure;Samples;Min_cycle;Max_cycle;Signal;HPM_P1;HPM_P2
2022/05/13 00:02:16;;;;;;;2.95;1.83;;;15.20;58.50;;;;;;5007867;28;20205;-59
2022/05/13 00:04:47;;;;;;;2.72;1.60;;;15.20;58.50;;;;;;5007900;28;20239;-59
2022/05/13 00:07:18;;;;;;;3.58;1.80;;;15.20;58.50;;;;;;5009060;28;20201;-59
2022/05/13 00:10:00;;;;;;;2.72;2.08;;;15.20;58.40;;;;;;5006325;28;20244;-59
2022/05/13 00:12:33;;;;;;;2.78;1.75;;;15.20;58.40;;;;;;5009553;28;20583;-59
2022/05/13 00:15:08;;;;;;;2.15;1.48;;;15.30;58.50;;;;;;5008285;28;20197;-59
2022/05/13 00:17:38;;;;;;;1.98;1.67;;;15.30;58.50;;;;;;5008416;28;20252;-58
2022/05/13 00:20:11;;;;;;;2.60;1.67;;;15.30;58.40;;;;;;5007931;28;20239;-58
2022/05/13 00:22:47;;;;;;;3.55;1.92;;;15.40;58.40;;;;;;5008879;28;20197;-59
2022/05/13 00:25:20;;;;;;;3.55;1.88;;;15.40;58.40;;;;;;5008247;28;20251;-59
2022/05/13 00:27:50;;;;;;;2.75;1.80;;;15.40;58.40;;;;;;5008399;28;20193;-59
2022/05/13 00:30:23;;;;;;;2.58;1.45;;;15.40;58.40;;;;;;5007390;28;20217;-59
2022/05/13 00:32:53;;;;;;;2.08;1.50;;;15.40;58.40;;;;;;5007662;28;20205;-59
2022/05/13 00:35:25;;;;;;;2.97;1.63;;;15.50;58.40;;;;;;5008710;28;20193;-58
2022/05/13 00:37:55;;;;;;;2.30;1.70;;;15.50;58.30;;;;;;5006633;28;20294;-59
2022/05/13 00:40:26;;;;;;;1.55;1.27;;;15.50;58.20;;;;;;5008851;28;20213;-59
2022/05/13 00:43:01;;;;;;;2.15;1.48;;;15.60;58.30;;;;;;5008054;28;20271;-59
2022/05/13 00:45:34;;;;;;;2.33;1.52;;;15.60;58.20;;;;;;5008249;28;20201;-59
2022/05/13 00:48:05;;;;;;;3.53;1.50;;;15.60;58.20;;;;;;5008262;28;20580;-59
2022/05/13 00:50:37;;;;;;;3.28;1.75;;;15.70;58.20;;;;;;5008694;28;20255;-58
2022/05/13 00:53:08;;;;;;;2.53;1.55;;;15.70;58.20;;;;;;5008219;28;20196;-58
2022/05/13 00:55:42;;;;;;;2.00;1.35;;;15.70;58.10;;;;;;5008320;28;20200;-59
2022/05/13 00:58:17;;;;;;;2.13;1.45;;;15.80;58.20;;;;;;5008084;28;20256;-59
2022/05/13 01:00:49;;;;;;;2.10;1.17;;;15.80;58.20;;;;;;5007412;28;20306;-58
2022/05/13 01:03:20;;;;;;;1.63;1.20;;;15.80;58.20;;;;;;5008299;28;20201;-59
2022/05/13 01:05:56;;;;;;;2.50;1.73;;;15.80;58.10;;;;;;5006237;28;20193;-59
2022/05/13 01:08:27;;;;;;;2.47;1.52;;;15.90;58.20;;;;;;5009041;28;20224;-58
2022/05/13 01:11:00;;;;;;;1.88;1.58;;;15.90;58.20;;;;;;5009272;28;20217;-58
2022/05/13 01:13:33;;;;;;;3.22;1.70;;;15.90;58.20;;;;;;5008428;28;20233;-58
2022/05/13 01:16:06;;;;;;;1.98;1.25;;;15.90;58.10;;;;;;5006715;28;20641;-59
2022/05/13 01:18:36;;;;;;;2.08;1.45;;;16.00;58.20;;;;;;5008050;28;20322;-59
2022/05/13 01:21:09;;;;;;;2.08;1.55;;;16.00;58.10;;;;;;5007346;28;20201;-59
2022/05/13 01:23:43;;;;;;;2.60;1.42;;;16.00;58.10;;;;;;5008575;28;20205;-59
2022/05/13 01:26:16;;;;;;;1.48;1.27;;;16.10;58.10;;;;;;5007660;28;20250;-59
2022/05/13 01:28:50;;;;;;;3.00;1.95;;;16.10;58.00;;;;;;5008134;28;20197;-59
2022/05/13 01:31:26;;;;;;;2.20;1.55;;;16.10;58.00;;;;;;5008202;28;20287;-59
2022/05/13 01:33:57;;;;;;;2.33;1.60;;;16.20;58.10;;;;;;5008316;28;20188;-59
2022/05/13 01:36:27;;;;;;;2.30;1.48;;;16.20;58.10;;;;;;5007380;28;20225;-58
2022/05/13 01:39:00;;;;;;;1.95;1.40;;;16.20;58.10;;;;;;5007399;28;20260;-59
2022/05/13 01:41:31;;;;;;;3.47;1.50;;;16.20;58.00;;;;;;5007147;28;20292;-58
2022/05/13 01:44:01;;;;;;;2.80;1.67;;;16.30;58.10;;;;;;5009827;28;20827;-59
2022/05/13 01:46:32;;;;;;;2.40;1.60;;;16.30;58.00;;;;;;5011717;28;20255;-59
2022/05/13 01:49:03;;;;;;;1.40;1.30;;;16.30;57.90;;;;;;5010017;28;20228;-58
2022/05/13 01:51:33;;;;;;;1.33;1.23;;;16.40;57.90;;;;;;5011212;28;20228;-58
2022/05/13 01:54:06;;;;;;;1.75;1.48;;;16.40;57.90;;;;;;5011290;28;20204;-59
2022/05/13 01:56:36;;;;;;;1.90;1.55;;;16.40;57.90;;;;;;5011043;28;20189;-58
2022/05/13 01:59:07;;;;;;;1.58;1.30;;;16.40;57.80;;;;;;5007471;28;20647;-58
2022/05/13 02:01:37;;;;;;;2.53;1.75;;;16.50;57.90;;;;;;5010263;28;20573;-59
2022/05/13 02:04:08;;;;;;;2.17;1.67;;;16.40;57.80;;;;;;5009611;28;20239;-58
2022/05/13 02:06:38;;;;;;;1.52;1.30;;;16.50;57.80;;;;;;5010969;28;20278;-59
2022/05/13 02:09:11;;;;;;;2.65;1.77;;;16.50;57.80;;;;;;5010967;28;20557;-59
2022/05/13 02:11:41;;;;;;;2.00;1.63;;;16.60;57.80;;;;;;5011057;28;20673;-58
2022/05/13 02:14:12;;;;;;;2.00;1.67;;;16.60;57.80;;;;;;5010003;28;20237;-59
2022/05/13 02:16:42;;;;;;;2.30;1.40;;;16.60;57.70;;;;;;5011482;28;20196;-59
2022/05/13 02:19:13;;;;;;;2.53;1.48;;;16.70;57.70;;;;;;5010454;28;21057;-58
2022/05/13 02:21:44;;;;;;;2.30;1.50;;;16.70;57.70;;;;;;5009952;28;20283;-58
2022/05/13 02:24:16;;;;;;;2.55;1.63;;;16.70;57.60;;;;;;5011298;28;20676;-58
2022/05/13 02:26:47;;;;;;;2.17;1.50;;;16.80;57.60;;;;;;5008724;28;20251;-59
2022/05/13 02:29:18;;;;;;;3.63;1.50;;;16.80;57.50;;;;;;5010503;28;20225;-59
2022/05/13 02:31:48;;;;;;;2.72;1.77;;;16.80;57.50;;;;;;5010725;28;20278;-59
2022/05/13 02:34:19;;;;;;;2.33;1.40;;;16.90;57.50;;;;;;5010621;28;20656;-59
2022/05/13 02:36:49;;;;;;;1.67;1.58;;;16.90;57.50;;;;;;5010793;28;20742;-59
2022/05/13 02:39:22;;;;;;;1.95;1.40;;;16.90;57.40;;;;;;5010540;28;20299;-58
2022/05/13 02:41:52;;;;;;;2.83;1.75;;;16.90;57.40;;;;;;5010864;28;20248;-59
2022/05/13 02:44:23;;;;;;;2.15;1.42;;;17.00;57.40;;;;;;5010748;28;20247;-59
2022/05/13 02:46:53;;;;;;;2.08;1.50;;;17.00;57.40;;;;;;5009369;28;20224;-59
2022/05/13 02:49:24;;;;;;;2.30;1.65;;;17.00;57.40;;;;;;5010853;28;20334;-58
2022/05/13 02:51:54;;;;;;;2.20;1.58;;;17.10;57.40;;;;;;5010508;28;20225;-59
2022/05/13 02:54:27;;;;;;;2.03;1.50;;;17.10;57.30;;;;;;5010131;28;20197;-59
2022/05/13 02:56:57;;;;;;;1.65;1.38;;;17.10;57.30;;;;;;5010206;28;20286;-59
2022/05/13 02:59:28;;;;;;;2.25;1.80;;;17.20;57.20;;;;;;5009078;28;20236;-59
2022/05/13 03:01:58;;;;;;;2.30;1.50;;;17.20;57.20;;;;;;5009521;28;20657;-59
2022/05/13 03:04:29;;;;;;;1.90;1.50;;;17.20;57.10;;;;;;5010069;28;20189;-59
2022/05/13 03:06:59;;;;;;;1.92;1.58;;;17.30;57.10;;;;;;5009983;28;20598;-59
2022/05/13 03:09:32;;;;;;;2.50;1.60;;;17.30;57.10;;;;;;5008746;28;20248;-58
2022/05/13 03:12:02;;;;;;;2.33;1.70;;;17.40;57.20;;;;;;5011240;28;20876;-58
2022/05/13 03:14:33;;;;;;;1.80;1.42;;;17.40;57.40;;;;;;5009872;28;20728;-58
2022/05/13 03:17:05;;;;;;;1.77;1.60;;;17.40;57.60;;;;;;5009473;28;20218;-58
2022/05/13 03:19:37;;;;;;;1.98;1.77;;;17.40;57.00;;;;;;5009506;28;20311;-59
2022/05/13 03:22:09;;;;;;;1.92;1.60;;;17.50;57.00;;;;;;5006780;28;20232;-59
2022/05/13 03:24:41;;;;;;;1.70;1.50;;;17.50;56.90;;;;;;5009689;28;20263;-59
2022/05/13 03:27:12;;;;;;;1.67;1.58;;;17.50;56.90;;;;;;5009544;28;20654;-59
2022/05/13 03:29:42;;;;;;;2.33;1.40;;;17.60;56.90;;;;;;5008633;28;20268;-59
2022/05/13 03:32:13;;;;;;;1.65;1.55;;;17.60;56.90;;;;;;5009933;28;20201;-59
2022/05/13 03:34:43;;;;;;;1.83;1.13;;;17.60;56.90;;;;;;5012403;28;20242;-59
2022/05/13 03:37:14;;;;;;;2.25;1.52;;;17.70;56.80;;;;;;5012605;28;20800;-59
2022/05/13 03:39:46;;;;;;;1.83;1.50;;;17.70;56.80;;;;;;5012305;28;20318;-59
2022/05/13 03:42:17;;;;;;;2.85;1.58;;;17.80;56.90;;;;;;5012605;28;20197;-59
2022/05/13 03:44:47;;;;;;;2.13;1.60;;;17.80;56.80;;;;;;5012616;28;20251;-59
2022/05/13 03:47:18;;;;;;;2.03;1.80;;;17.80;56.80;;;;;;5012423;28;20205;-59
2022/05/13 03:49:48;;;;;;;2.05;1.38;;;17.80;56.70;;;;;;4992688;28;20233;-59
2022/05/13 03:52:19;;;;;;;1.95;1.45;;;17.90;56.70;;;;;;4992673;28;20193;-59
2022/05/13 03:54:51;;;;;;;2.20;1.60;;;17.90;56.70;;;;;;4992638;28;20609;-59
2022/05/13 03:57:22;;;;;;;1.67;1.40;;;17.90;56.70;;;;;;4992961;28;20197;-59
2022/05/13 03:59:53;;;;;;;2.00;1.80;;;17.90;56.60;;;;;;4992533;28;20316;-58
2022/05/13 04:02:24;;;;;;;1.40;1.30;;;18.00;56.60;;;;;;4992436;28;20204;-59
2022/05/13 04:10:29;;;;;;;2.75;1.90;;;18.10;56.50;;;;;;4993055;28;20216;-58
2022/05/13 04:18:32;;;;;;;4.72;2.35;;;18.10;56.40;;;;;;4992130;28;20279;-54
2022/05/13 04:21:04;;;;;;;3.80;2.53;;;18.10;56.50;;;;;;4991714;28;20648;-53
2022/05/13 04:23:35;;;;;;;7.35;3.50;;;18.10;56.40;;;;;;4991739;28;20197;-58
2022/05/13 04:26:11;;;;;;;4.30;3.20;;;18.20;56.50;;;;;;4991733;28;20256;-54
2022/05/13 04:28:42;;;;;;;6.18;3.50;;;18.10;56.40;;;;;;4991776;28;20212;-61
2022/05/13 04:31:14;;;;;;;14.60;7.97;;;18.10;56.50;;;;;;4991967;28;20213;-61
2022/05/13 04:33:45;;;;;;;21.08;12.13;;;18.10;56.50;;;;;;4991550;28;20202;-55
2022/05/13 04:36:15;;;;;;;21.10;11.55;;;18.10;56.60;;;;;;4991654;28;20265;-55
2022/05/13 04:38:46;;;;;;;19.27;11.57;;;18.10;56.70;;;;;;4991585;28;20319;-56
2022/05/13 04:44:07;;;;;;;16.98;11.38;;;18.00;57.30;;;;;;4992289;28;20197;-53
2022/05/13 04:46:38;;;;;;;16.75;8.93;;;18.00;56.70;;;;;;4991622;28;20263;-51
2022/05/13 04:49:09;;;;;;;11.07;6.40;;;17.90;56.70;;;;;;4991240;28;20221;-54
2022/05/13 04:51:40;;;;;;;8.82;4.72;;;17.90;56.70;;;;;;4992108;28;20201;-51
2022/05/13 04:54:11;;;;;;;7.07;4.30;;;17.90;56.60;;;;;;4992033;28;20660;-52
2022/05/13 04:56:43;;;;;;;6.00;3.95;;;17.80;56.50;;;;;;4991984;28;20654;-53
2022/05/13 04:59:14;;;;;;;7.25;4.30;;;17.80;56.60;;;;;;4991549;28;20647;-56
2022/05/13 05:01:44;;;;;;;8.93;4.80;;;17.80;56.60;;;;;;4991660;28;20256;-51
2022/05/13 05:04:15;;;;;;;9.95;5.30;;;17.80;56.50;;;;;;4991243;28;20247;-53
2022/05/13 05:06:45;;;;;;;9.95;5.95;;;17.80;56.50;;;;;;5003782;28;20298;-53
2022/05/13 05:09:16;;;;;;;10.18;6.43;;;17.70;56.50;;;;;;5007271;28;20231;-52
2022/05/13 05:11:48;;;;;;;10.27;7.07;;;17.70;56.40;;;;;;5008946;28;20189;-56
2022/05/13 05:14:18;;;;;;;11.10;5.85;;;17.60;56.30;;;;;;5008516;28;20255;-50
2022/05/13 05:16:49;;;;;;;8.80;5.90;;;17.60;56.20;;;;;;5005650;28;20245;-54
2022/05/13 05:19:20;;;;;;;10.30;6.45;;;17.50;56.20;;;;;;5010417;28;20228;-54
2022/05/13 05:21:50;;;;;;;9.93;7.57;;;17.50;56.20;;;;;;5012121;28;20193;-51
2022/05/13 05:24:21;;;;;;;10.40;8.10;;;17.40;56.10;;;;;;5012332;28;20259;-54
2022/05/13 05:26:53;;;;;;;9.43;8.35;;;17.40;56.10;;;;;;5012701;28;20290;-53
2022/05/13 05:29:24;;;;;;;10.55;9.18;;;17.30;56.00;;;;;;5011721;28;20244;-53
2022/05/13 05:31:54;;;;;;;13.57;9.60;;;17.20;56.00;;;;;;5011013;28;20262;-53
2022/05/13 05:34:25;;;;;;;11.25;8.07;;;17.10;55.90;;;;;;5010794;28;20213;-59
2022/05/13 05:36:55;;;;;;;13.10;8.52;;;17.10;56.00;;;;;;5010961;28;20257;-59
2022/05/13 05:39:26;;;;;;;9.32;5.60;;;17.00;55.90;;;;;;5011164;28;20693;-57
2022/05/13 05:41:58;;;;;;;7.75;4.93;;;17.00;56.80;;;;;;5011599;28;20197;-58
2022/05/13 05:44:29;;;;;;;6.38;4.95;;;17.00;57.70;;;;;;5011710;28;20211;-58
2022/05/13 05:47:01;;;;;;;9.27;4.85;;;17.00;57.90;;;;;;5011970;28;20201;-58
2022/05/13 05:49:31;;;;;;;8.80;5.18;;;17.10;57.90;;;;;;5011197;28;20590;-58
2022/05/13 05:52:02;;;;;;;6.57;5.35;;;17.10;57.90;;;;;;5010930;28;20193;-58
2022/05/13 05:57:22;;;;;;;7.10;5.13;;;17.10;57.90;;;;;;5011358;28;20699;-58
2022/05/13 05:59:52;;;;;;;6.68;4.18;;;17.10;57.80;;;;;;5009779;28;20231;-59
2022/05/13 06:02:23;;;;;;;6.95;5.05;;;17.20;57.70;;;;;;5011281;28;20293;-58
2022/05/13 06:04:53;;;;;;;6.80;5.13;;;17.20;57.70;;;;;;5011298;28;20228;-59
2022/05/13 06:07:24;;;;;;;8.23;5.00;;;17.20;57.60;;;;;;5011071;28;20197;-58
2022/05/13 06:09:54;;;;;;;8.82;5.38;;;17.20;57.60;;;;;;5010327;28;20217;-58
2022/05/13 06:12:27;;;;;;;7.30;4.53;;;17.20;57.60;;;;;;5012173;28;20263;-58
2022/05/13 06:14:57;;;;;;;7.05;4.57;;;17.20;57.60;;;;;;5010019;28;20275;-58
2022/05/13 06:17:28;;;;;;;5.93;4.60;;;17.20;57.50;;;;;;5010832;28;20189;-58
2022/05/13 06:19:58;;;;;;;7.55;4.40;;;17.20;57.60;;;;;;5009612;28;20700;-59
2022/05/13 06:22:29;;;;;;;7.07;4.72;;;17.20;57.60;;;;;;5009357;28;20251;-58
2022/05/13 06:24:59;;;;;;;5.95;4.88;;;17.20;57.60;;;;;;5009878;28;20271;-58
2022/05/13 06:27:32;;;;;;;4.82;4.20;;;17.20;57.60;;;;;;4991678;28;20264;-58
2022/05/13 06:30:02;;;;;;;9.25;4.70;;;17.20;57.60;;;;;;4993197;28;20217;-57
2022/05/13 06:32:33;;;;;;;7.65;4.57;;;17.20;57.60;;;;;;4994272;28;20198;-58
2022/05/13 06:35:03;;;;;;;4.60;4.15;;;17.20;57.60;;;;;;4993043;28;20233;-58
2022/05/13 06:37:34;;;;;;;4.55;3.90;;;17.30;57.70;;;;;;4992982;28;20198;-58
2022/05/13 06:40:05;;;;;;;6.65;4.80;;;17.20;57.70;;;;;;4992255;28;20236;-58
2022/05/13 06:42:38;;;;;;;7.10;4.55;;;17.30;57.80;;;;;;4992603;28;20202;-57
2022/05/13 06:45:09;;;;;;;5.72;4.45;;;17.20;57.70;;;;;;4991942;28;20325;-58
2022/05/13 06:47:40;;;;;;;7.20;4.65;;;17.30;57.70;;;;;;4991974;28;20201;-58
2022/05/13 06:50:12;;;;;;;4.90;4.40;;;17.30;57.70;;;;;;4992386;28;20284;-58
2022/05/13 06:52:43;;;;;;;6.20;4.35;;;17.20;57.60;;;;;;4992687;28;20197;-58
2022/05/13 06:55:14;;;;;;;5.75;4.32;;;17.20;57.60;;;;;;4991943;28;20197;-58
2022/05/13 06:57:47;;;;;;;4.45;4.05;;;17.20;57.60;;;;;;4992564;28;20190;-57
2022/05/13 07:00:18;;;;;;;4.85;4.22;;;17.20;57.60;;;;;;4992191;28;20315;-58
2022/05/13 07:02:49;;;;;;;6.00;4.63;;;17.20;57.60;;;;;;4992042;28;20284;-58
2022/05/13 07:05:20;;;;;;;6.15;4.40;;;17.20;57.50;;;;;;4991643;28;20233;-58
2022/05/13 07:07:51;;;;;;;5.10;3.90;;;17.20;57.50;;;;;;4991643;28;20193;-58
2022/05/13 07:10:21;;;;;;;6.18;3.85;;;17.20;57.50;;;;;;4992462;28;20229;-57
2022/05/13 07:12:54;;;;;;;4.50;3.63;;;17.20;57.50;;;;;;4992041;28;20197;-57
2022/05/13 07:15:25;;;;;;;4.45;4.05;;;17.20;57.50;;;;;;4991580;28;20197;-58
2022/05/13 07:17:55;;;;;;;4.80;3.97;;;17.10;57.40;;;;;;4991758;28;20193;-58
2022/05/13 07:20:26;;;;;;;3.90;3.53;;;17.10;57.40;;;;;;4991298;28;20229;-58
2022/05/13 07:22:57;;;;;;;4.13;3.72;;;17.10;57.50;;;;;;4991347;28;20895;-58
2022/05/13 07:25:31;;;;;;;4.35;3.95;;;17.10;57.50;;;;;;4991312;28;20728;-58
2022/05/13 07:28:03;;;;;;;5.20;3.88;;;17.10;57.50;;;;;;4991604;28;20216;-58
2022/05/13 07:30:34;;;;;;;5.15;3.90;;;17.10;57.50;;;;;;4990942;28;20304;-58
2022/05/13 07:33:04;;;;;;;4.50;3.78;;;17.10;57.50;;;;;;4991153;28;20198;-58
2022/05/13 07:35:35;;;;;;;4.53;3.72;;;17.10;57.50;;;;;;4990988;28;20260;-58
2022/05/13 07:38:07;;;;;;;5.10;4.05;;;17.10;57.50;;;;;;4991004;28;20202;-58
2022/05/13 07:43:26;;;;;;;4.97;3.20;;;17.00;57.40;;;;;;4991230;28;20201;-58
2022/05/13 07:45:57;;;;;;;4.75;3.92;;;17.00;57.40;;;;;;4990708;28;20198;-58
2022/05/13 07:48:27;;;;;;;4.95;3.95;;;17.00;57.50;;;;;;4991131;28;20209;-58
2022/05/13 07:50:58;;;;;;;4.13;3.53;;;17.00;57.40;;;;;;4991392;28;20221;-58
2022/05/13 07:53:32;;;;;;;4.32;3.38;;;17.00;57.40;;;;;;4991447;28;20658;-58
2022/05/13 07:56:02;;;;;;;4.75;3.55;;;17.00;57.40;;;;;;4991082;28;20193;-58
2022/05/13 07:58:35;;;;;;;4.28;3.50;;;16.90;57.40;;;;;;4990802;28;20201;-58
2022/05/13 08:01:06;;;;;;;4.00;3.22;;;16.90;57.40;;;;;;4990488;28;20260;-58
2022/05/13 08:03:36;;;;;;;4.10;3.42;;;16.90;57.40;;;;;;4991285;28;20704;-58
2022/05/13 08:06:08;;;;;;;4.20;3.55;;;16.90;57.40;;;;;;4992627;28;20256;-58
2022/05/13 08:08:40;;;;;;;4.53;3.30;;;16.90;57.40;;;;;;4991221;28;20665;-58
2022/05/13 08:11:12;;;;;;;4.13;3.58;;;16.90;57.40;;;;;;4991633;28;20236;-58
2022/05/13 08:13:45;;;;;;;3.63;3.33;;;16.90;57.50;;;;;;4990845;28;20260;-58
2022/05/13 08:16:17;;;;;;;5.30;3.58;;;16.90;57.40;;;;;;4990091;28;20587;-58
2022/05/13 08:18:48;;;;;;;3.90;3.50;;;16.90;57.50;;;;;;4990259;28;20708;-58
2022/05/13 08:21:18;;;;;;;3.40;3.10;;;16.80;57.40;;;;;;4990871;28;20289;-58
2022/05/13 08:23:49;;;;;;;3.75;3.30;;;16.80;57.50;;;;;;4990761;28;20228;-58
2022/05/13 08:26:20;;;;;;;5.60;3.60;;;16.80;57.50;;;;;;4990446;28;20201;-62
2022/05/13 08:28:53;;;;;;;4.68;3.53;;;16.80;57.50;;;;;;4990335;28;20194;-58
2022/05/13 08:31:23;;;;;;;4.25;3.33;;;16.80;57.40;;;;;;4990182;28;20674;-58
2022/05/13 08:33:54;;;;;;;3.88;3.10;;;16.80;57.50;;;;;;4990770;28;20197;-58
2022/05/13 08:36:24;;;;;;;3.85;3.17;;;16.70;57.40;;;;;;4990304;28;20593;-58
2022/05/13 08:38:55;;;;;;;3.55;3.05;;;16.70;57.40;;;;;;4990340;28;20201;-58
2022/05/13 08:41:48;;;;;;;3.50;3.20;;;16.70;57.40;;;;;;4990341;28;20263;-58
2022/05/13 08:44:20;;;;;;;4.40;3.45;;;16.70;57.40;;;;;;4990140;28;20228;-58
2022/05/13 08:46:59;;;;;;;3.38;3.03;;;16.70;57.40;;;;;;4990435;28;20198;-58
2022/05/13 08:49:37;;;;;;;3.67;3.08;;;16.70;57.40;;;;;;4990185;28;20279;-53
2022/05/13 08:55:03;;;;;;;3.60;2.80;;;16.70;57.70;;;;;;5013638;28;20719;-58
2022/05/13 08:57:38;;;;;;;4.30;2.45;;;16.70;57.70;;;;;;5013246;28;20197;-59
2022/05/13 09:00:13;;;;;;;3.05;2.70;;;16.70;57.90;;;;;;5013477;28;20226;-58
2022/05/13 09:02:51;;;;;;;4.18;2.50;;;16.70;57.90;;;;;;5014483;28;20302;-58
2022/05/13 09:05:28;;;;;;;3.47;2.67;;;16.70;57.90;;;;;;5015153;28;20246;-58
2022/05/13 09:08:00;;;;;;;4.00;2.58;;;16.70;57.80;;;;;;5014887;28;20228;-58
2022/05/13 09:10:31;;;;;;;2.92;2.63;;;16.70;57.80;;;;;;5013789;28;20220;-58
2022/05/13 09:13:09;;;;;;;2.60;2.40;;;16.70;57.70;;;;;;5014240;28;20205;-57
2022/05/13 09:15:45;;;;;;;3.17;2.70;;;16.70;57.70;;;;;;5011071;28;20220;-58
2022/05/13 09:18:25;;;;;;;2.63;2.42;;;16.70;57.70;;;;;;5002953;28;20267;-57
2022/05/13 09:20:59;;;;;;;3.13;2.78;;;16.60;57.60;;;;;;5010836;28;20259;-58
2022/05/13 09:23:30;;;;;;;3.95;2.58;;;16.60;57.60;;;;;;5013607;28;20202;-58
2022/05/13 09:26:06;;;;;;;3.53;2.75;;;16.60;57.60;;;;;;5012638;28;20197;-58
2022/05/13 09:28:39;;;;;;;2.75;2.40;;;16.60;57.60;;;;;;5015013;28;20200;-58
2022/05/13 09:31:22;;;;;;;4.05;2.85;;;16.60;57.60;;;;;;5014773;28;20224;-58
2022/05/13 09:33:53;;;;;;;2.95;2.65;;;16.60;57.60;;;;;;5014527;28;20192;-58
2022/05/13 09:36:36;;;;;;;3.30;2.67;;;16.60;57.60;;;;;;5013977;28;20243;-58
2022/05/13 09:39:23;;;;;;;4.22;3.20;;;16.50;57.60;;;;;;5013817;28;20220;-58
2022/05/13 09:41:54;;;;;;;3.83;3.00;;;16.50;57.60;;;;;;5014194;28;20577;-58
2022/05/13 09:44:26;;;;;;;3.80;3.35;;;16.60;57.60;;;;;;5014317;28;20193;-58
2022/05/13 09:47:13;;;;;;;3.22;2.92;;;16.50;57.60;;;;;;5014564;28;20267;-58
2022/05/13 09:49:47;;;;;;;4.13;2.65;;;16.50;57.60;;;;;;5014321;28;20305;-58
2022/05/13 09:52:19;;;;;;;3.47;2.90;;;16.50;57.60;;;;;;5013950;28;20573;-58
2022/05/13 09:54:51;;;;;;;5.07;2.65;;;16.50;57.60;;;;;;5014414;28;20653;-58
2022/05/13 09:57:31;;;;;;;3.15;2.85;;;16.50;58.20;;;;;;5013932;28;20201;-58
2022/05/13 10:00:06;;;;;;;3.10;2.45;;;16.40;57.50;;;;;;5014201;28;20294;-58
2022/05/13 10:02:41;;;;;;;3.00;2.50;;;16.40;57.50;;;;;;5013485;28;20235;-58
2022/05/13 10:05:19;;;;;;;3.92;2.63;;;16.40;57.50;;;;;;5013228;28;20610;-58
2022/05/13 10:08:08;;;;;;;3.10;2.80;;;16.40;57.60;;;;;;5010835;28;20213;-58
2022/05/13 10:14:02;;;;;;;2.50;2.30;;;16.40;57.50;;;;;;4931184;29;20911;-58
2022/05/13 10:16:37;;;;;;;2.95;2.40;;;16.40;57.50;;;;;;4930424;29;20200;-58
2022/05/13 10:19:15;;;;;;;4.10;2.65;;;16.40;57.50;;;;;;4980520;28;20290;-58
2022/05/13 10:21:50;;;;;;;2.67;2.47;;;16.30;57.50;;;;;;5010719;28;20639;-58
2022/05/13 10:24:33;;;;;;;3.00;2.35;;;16.30;57.50;;;;;;5009161;28;20242;-58
2022/05/13 10:27:05;;;;;;;2.80;2.53;;;16.30;57.50;;;;;;5011637;28;20274;-58
2022/05/13 10:29:40;;;;;;;2.88;2.58;;;16.30;57.50;;;;;;5009598;28;20236;-58
2022/05/13 10:32:18;;;;;;;2.88;2.53;;;16.30;57.50;;;;;;5006617;28;20666;-58
2022/05/13 10:34:54;;;;;;;4.32;2.65;;;16.30;57.50;;;;;;5009469;28;20664;-57
2022/05/13 10:37:31;;;;;;;3.25;2.60;;;16.20;57.60;;;;;;5009535;28;20196;-58
2022/05/13 10:40:07;;;;;;;2.88;2.50;;;16.20;57.60;;;;;;5009668;28;20318;-57
2022/05/13 10:42:41;;;;;;;3.25;2.70;;;16.20;57.60;;;;;;5009639;28;20226;-57
2022/05/13 10:45:18;;;;;;;3.45;2.67;;;16.20;57.60;;;;;;5010544;28;20242;-58
2022/05/13 10:47:53;;;;;;;2.85;2.30;;;16.20;57.60;;;;;;5010143;28;20692;-58
2022/05/13 10:50:29;;;;;;;3.33;2.92;;;16.20;57.60;;;;;;5009570;28;20695;-57
2022/05/13 10:53:12;;;;;;;2.92;2.72;;;16.20;57.60;;;;;;5010316;28;20620;-58
2022/05/13 10:55:54;;;;;;;3.95;2.60;;;16.20;57.60;;;;;;5009899;28;20208;-58
2022/05/13 10:58:35;;;;;;;2.58;2.30;;;16.20;57.60;;;;;;5009654;28;20255;-57
2022/05/13 11:01:19;;;;;;;2.38;2.17;;;16.20;57.60;;;;;;5008346;28;20290;-58
2022/05/13 11:04:01;;;;;;;3.58;2.60;;;16.10;57.50;;;;;;5008854;28;20189;-58
2022/05/13 11:06:48;;;;;;;2.53;2.33;;;16.10;57.50;;;;;;5010097;28;20251;-58
2022/05/13 11:09:37;;;;;;;3.90;2.70;;;16.10;57.50;;;;;;5003861;28;20862;-58
2022/05/13 11:12:16;;;;;;;2.53;2.33;;;16.10;57.50;;;;;;5009641;28;20207;-58
2022/05/13 11:14:59;;;;;;;3.33;2.88;;;16.10;57.50;;;;;;5009452;28;20192;-58
2022/05/13 11:17:39;;;;;;;3.35;2.38;;;16.10;57.50;;;;;;5006826;28;20193;-57
2022/05/13 11:20:25;;;;;;;3.05;2.55;;;16.00;57.50;;;;;;5008746;28;20229;-58
2022/05/13 11:23:09;;;;;;;2.78;2.47;;;16.00;57.50;;;;;;5008157;28;20228;-58
2022/05/13 11:25:55;;;;;;;2.83;2.40;;;16.00;57.50;;;;;;5009274;28;20557;-58
2022/05/13 11:29:06;;;;;;;3.28;2.65;;;16.00;57.60;;;;;;5008947;28;20770;-58
2022/05/13 11:32:03;;;;;;;3.67;2.55;;;16.00;57.60;;;;;;4948540;28;20305;-59
2022/05/13 11:34:56;;;;;;;2.30;2.10;;;16.00;57.60;;;;;;4933925;29;20779;-59
2022/05/13 11:37:32;;;;;;;2.90;2.25;;;16.00;57.60;;;;;;4982727;28;20288;-58
2022/05/13 11:40:16;;;;;;;3.50;2.60;;;16.00;57.60;;;;;;4991199;28;20245;-59
2022/05/13 11:43:25;;;;;;;2.58;2.33;;;16.00;57.60;;;;;;4991170;28;20223;-59
2022/05/13 11:46:18;;;;;;;3.40;2.38;;;16.00;57.60;;;;;;4991455;28;20193;-59
2022/05/13 11:48:51;;;;;;;3.65;2.53;;;15.90;57.60;;;;;;4990878;28;20693;-58
2022/05/13 11:51:24;;;;;;;2.70;2.30;;;16.00;57.60;;;;;;4991383;28;20202;-59
2022/05/13 11:53:56;;;;;;;2.80;2.50;;;16.00;57.60;;;;;;4991434;28;20225;-58
2022/05/13 11:56:39;;;;;;;2.20;2.00;;;15.90;57.60;;;;;;4991469;28;20257;-58
2022/05/13 11:59:11;;;;;;;3.58;2.50;;;15.90;57.60;;;;;;4991076;28;20366;-59
2022/05/13 12:02:10;;;;;;;3.45;2.40;;;15.90;57.60;;;;;;4971584;28;20950;-58
2022/05/13 12:05:02;;;;;;;3.00;2.30;;;15.90;57.60;;;;;;4987407;28;20658;-57
2022/05/13 12:07:34;;;;;;;2.90;2.25;;;15.90;57.60;;;;;;4991152;28;20197;-57
2022/05/13 12:10:08;;;;;;;4.05;2.60;;;15.90;57.60;;;;;;4991134;28;20276;-58
2022/05/13 12:12:56;;;;;;;3.25;2.75;;;15.80;57.60;;;;;;4991560;28;20194;-57
2022/05/13 12:15:50;;;;;;;2.58;2.38;;;15.80;57.60;;;;;;4990628;28;20202;-57
2022/05/13 12:18:32;;;;;;;3.47;2.60;;;15.80;57.60;;;;;;4987958;28;20197;-58
2022/05/13 12:21:16;;;;;;;4.18;3.08;;;15.80;57.60;;;;;;4990827;28;20226;-58
2022/05/13 12:23:56;;;;;;;3.90;2.65;;;15.80;57.60;;;;;;4990967;28;20534;-58
2022/05/13 12:27:03;;;;;;;3.17;2.60;;;15.80;57.60;;;;;;4990631;28;20229;-57
2022/05/13 12:30:00;;;;;;;4.43;2.60;;;15.80;57.60;;;;;;4989290;28;20217;-58
2022/05/13 12:32:42;;;;;;;3.20;2.65;;;15.80;57.60;;;;;;4990492;28;20201;-58
2022/05/13 12:38:12;;;;;;;3.67;2.63;;;15.80;57.60;;;;;;4990335;28;20280;-58
2022/05/13 12:41:09;;;;;;;3.33;3.00;;;15.80;57.60;;;;;;4990317;28;20232;-59
2022/05/13 12:43:55;;;;;;;3.97;2.80;;;15.70;57.50;;;;;;4989679;28;20670;-58
2022/05/13 12:46:45;;;;;;;4.50;2.65;;;15.70;57.50;;;;;;4990544;28;20204;-59
2022/05/13 12:49:21;;;;;;;3.83;2.60;;;15.70;57.50;;;;;;4989802;28;20709;-58
2022/05/13 12:52:04;;;;;;;3.38;2.80;;;15.70;57.50;;;;;;4990336;28;20205;-58
2022/05/13 12:54:42;;;;;;;3.25;2.78;;;15.70;57.60;;;;;;4990004;28;20208;-58
2022/05/13 12:57:16;;;;;;;3.65;2.80;;;15.70;57.60;;;;;;4990681;28;20193;-58
2022/05/13 12:59:50;;;;;;;3.72;2.90;;;15.70;57.60;;;;;;4990642;28;20270;-59
2022/05/13 13:02:24;;;;;;;2.42;2.22;;;15.70;57.60;;;;;;4990430;28;20260;-58
2022/05/13 13:05:00;;;;;;;3.67;2.47;;;15.70;57.70;;;;;;4990005;28;20194;-59
2022/05/13 13:07:35;;;;;;;3.28;2.75;;;15.60;57.60;;;;;;4990204;28;20197;-58
2022/05/13 13:10:05;;;;;;;3.55;2.63;;;15.70;57.50;;;;;;4989846;28;20217;-58
2022/05/13 13:12:41;;;;;;;3.15;2.35;;;15.70;57.50;;;;;;4990800;28;20201;-58
2022/05/13 13:15:17;;;;;;;4.22;2.55;;;15.60;57.50;;;;;;4970780;28;20256;-58
2022/05/13 13:17:52;;;;;;;3.92;2.85;;;15.60;57.50;;;;;;4970691;28;20190;-58
2022/05/13 13:20:24;;;;;;;3.92;2.55;;;15.70;57.60;;;;;;4987915;28;20267;-58
2022/05/13 13:22:58;;;;;;;3.35;2.80;;;15.60;57.50;;;;;;4990152;28;20193;-58
2022/05/13 13:25:31;;;;;;;3.28;2.55;;;15.60;57.50;;;;;;4990503;28;20198;-58
2022/05/13 13:28:03;;;;;;;3.53;2.53;;;15.60;57.60;;;;;;4990530;28;20221;-58
2022/05/13 13:30:35;;;;;;;3.63;2.60;;;15.60;57.50;;;;;;4990376;28;20303;-58
2022/05/13 13:33:10;;;;;;;3.60;2.80;;;15.60;57.60;;;;;;4989654;28;20228;-59
2022/05/13 13:35:43;;;;;;;3.97;2.40;;;15.60;57.60;;;;;;4989841;28;20205;-58
2022/05/13 13:38:15;;;;;;;5.05;2.80;;;15.60;57.60;;;;;;4990108;28;20654;-58
2022/05/13 13:40:49;;;;;;;3.47;2.40;;;15.60;57.60;;;;;;4992392;28;20268;-58
2022/05/13 13:43:23;;;;;;;4.00;2.53;;;15.50;57.50;;;;;;4993516;28;20210;-58
2022/05/13 13:45:59;;;;;;;4.25;2.85;;;15.60;57.60;;;;;;4993857;28;20229;-58
2022/05/13 13:48:37;;;;;;;5.40;3.22;;;15.50;57.50;;;;;;4992739;28;20201;-58
2022/05/13 13:51:09;;;;;;;3.55;2.70;;;15.50;57.50;;;;;;4993103;28;20197;-58